Time;durP1;ratioP1;P1;durP2;ratioP2;P2;SDS_P1;SDS_P2;PMS_P1;PMS_P2;Temp;Humidity;BMP_temperature;BMP_pressure;BME280_temperature;BME280_humidity;BME280_pressure;Samples;Min_cycle;Max_cycle;Signal;HPM_P1;HPM_P2
2024/02/05 00:00:10;;;;;;;1.53;0.90;;;9.40;99.90;;;;;;4968098;28;20837;-50
2024/02/05 00:02:41;;;;;;;2.40;1.57;;;9.40;99.90;;;;;;4977801;28;20526;-47
2024/02/05 00:05:10;;;;;;;4.80;1.27;;;9.40;99.90;;;;;;4983974;28;20418;-48
2024/02/05 00:07:41;;;;;;;1.50;1.00;;;9.40;99.90;;;;;;4982142;28;20569;-46
2024/02/05 00:10:10;;;;;;;2.73;1.20;;;9.40;99.90;;;;;;4981806;28;20442;-47
2024/02/05 00:12:38;;;;;;;1.77;1.00;;;9.40;99.90;;;;;;4982926;28;21005;-46
2024/02/05 00:15:08;;;;;;;1.93;1.50;;;9.40;99.90;;;;;;4983021;28;20431;-48
2024/02/05 00:17:36;;;;;;;2.03;1.13;;;9.40;99.90;;;;;;4979015;28;20475;-45
2024/02/05 00:20:07;;;;;;;3.20;1.30;;;9.40;99.90;;;;;;4984321;28;20972;-47
2024/02/05 00:22:35;;;;;;;2.73;1.23;;;9.40;99.90;;;;;;4983059;28;20479;-47
2024/02/05 00:25:05;;;;;;;2.07;1.10;;;9.40;99.90;;;;;;4984099;28;20965;-47
2024/02/05 00:27:34;;;;;;;2.07;1.20;;;9.40;99.90;;;;;;4975452;28;20470;-47
2024/02/05 00:30:04;;;;;;;3.80;1.20;;;9.40;99.90;;;;;;4984309;28;20462;-46
2024/02/05 00:32:32;;;;;;;1.80;1.10;;;9.40;99.90;;;;;;4977408;28;20501;-46
2024/02/05 00:35:00;;;;;;;1.60;1.10;;;9.40;99.90;;;;;;4982730;28;20793;-46
2024/02/05 00:37:29;;;;;;;4.23;1.10;;;9.40;99.90;;;;;;4977847;28;20478;-46
2024/02/05 00:39:57;;;;;;;2.90;1.30;;;9.40;99.90;;;;;;4960006;28;20428;-47
2024/02/05 00:42:26;;;;;;;2.90;1.27;;;9.40;99.90;;;;;;4983323;28;21022;-48
2024/02/05 00:44:55;;;;;;;3.70;1.17;;;9.40;99.90;;;;;;4978984;28;20433;-50
2024/02/05 00:47:23;;;;;;;6.47;1.10;;;9.40;99.90;;;;;;4962575;28;20471;-48
2024/02/05 00:49:51;;;;;;;2.60;1.27;;;9.40;99.90;;;;;;4977662;28;20966;-46
2024/02/05 00:52:20;;;;;;;7.80;1.50;;;9.40;99.90;;;;;;4983293;28;21003;-48
2024/02/05 00:54:48;;;;;;;4.10;1.90;;;9.40;99.90;;;;;;4970402;28;20445;-46
2024/02/05 00:57:17;;;;;;;2.77;1.60;;;9.40;99.90;;;;;;4981815;28;20463;-46
2024/02/05 00:59:47;;;;;;;2.13;1.47;;;9.40;99.90;;;;;;4981188;28;20444;-47
2024/02/05 01:02:16;;;;;;;3.23;1.40;;;9.40;99.90;;;;;;4972988;28;20817;-47
2024/02/05 01:04:44;;;;;;;7.03;1.63;;;9.40;99.90;;;;;;4981055;28;20991;-47
2024/02/05 01:07:13;;;;;;;3.70;1.80;;;9.40;99.90;;;;;;4982538;28;20464;-47
2024/02/05 01:09:41;;;;;;;2.00;1.37;;;9.40;99.90;;;;;;4983202;28;20480;-46
2024/02/05 01:12:09;;;;;;;2.77;1.30;;;9.40;99.90;;;;;;4981105;28;20544;-46
2024/02/05 01:14:38;;;;;;;4.83;1.60;;;9.40;99.90;;;;;;4982076;28;20437;-48
2024/02/05 01:17:09;;;;;;;1.43;0.93;;;9.40;99.90;;;;;;4978196;28;20855;-46
2024/02/05 01:19:37;;;;;;;3.23;1.57;;;9.40;99.90;;;;;;4982850;28;20494;-45
2024/02/05 01:22:05;;;;;;;3.60;1.73;;;9.40;99.90;;;;;;4982242;28;20524;-46
2024/02/05 01:24:33;;;;;;;3.70;1.17;;;9.40;99.90;;;;;;4981627;28;20877;-46
2024/02/05 01:27:02;;;;;;;3.83;1.60;;;9.40;99.90;;;;;;4975920;28;21575;-46
2024/02/05 01:29:31;;;;;;;3.00;1.23;;;9.40;99.90;;;;;;4977506;28;20440;-46
2024/02/05 01:31:59;;;;;;;2.97;1.10;;;9.40;99.90;;;;;;4974807;28;20843;-47
2024/02/05 01:34:29;;;;;;;2.63;1.40;;;9.40;99.90;;;;;;4977631;28;20439;-46
2024/02/05 01:36:57;;;;;;;3.20;2.17;;;9.40;99.90;;;;;;4975721;28;20414;-45
2024/02/05 01:39:25;;;;;;;3.67;1.73;;;9.40;99.90;;;;;;4983083;28;20900;-46
2024/02/05 01:41:53;;;;;;;2.13;1.53;;;9.40;99.90;;;;;;4976900;28;20453;-49
2024/02/05 01:44:22;;;;;;;3.13;1.97;;;9.40;99.90;;;;;;4981340;28;20824;-49
2024/02/05 01:46:50;;;;;;;3.70;1.60;;;9.40;99.90;;;;;;4976653;28;21417;-45
2024/02/05 01:49:19;;;;;;;2.83;1.50;;;9.40;99.90;;;;;;4983217;28;20437;-48
2024/02/05 01:51:52;;;;;;;3.07;1.50;;;9.40;99.90;;;;;;4981195;28;20484;-46
2024/02/05 01:54:21;;;;;;;3.60;1.60;;;9.40;99.90;;;;;;4983071;28;20467;-49
2024/02/05 01:56:51;;;;;;;4.03;1.50;;;9.40;99.90;;;;;;4979932;28;20822;-49
2024/02/05 01:59:19;;;;;;;2.83;1.97;;;9.40;99.90;;;;;;4983748;28;20828;-46
2024/02/05 02:01:48;;;;;;;3.00;1.53;;;9.40;99.90;;;;;;4979047;28;20453;-47
2024/02/05 02:04:16;;;;;;;5.57;1.83;;;9.40;99.90;;;;;;4985130;28;20811;-50
2024/02/05 02:06:45;;;;;;;3.33;1.60;;;9.40;99.90;;;;;;4964373;28;20457;-48
2024/02/05 02:09:16;;;;;;;2.67;1.70;;;9.40;99.90;;;;;;4984537;28;20430;-48
2024/02/05 02:11:44;;;;;;;5.27;1.83;;;9.40;99.90;;;;;;4985072;28;20435;-46
2024/02/05 02:14:12;;;;;;;3.53;1.47;;;9.40;99.90;;;;;;4984431;28;20474;-46
2024/02/05 02:16:41;;;;;;;3.40;2.00;;;9.40;99.90;;;;;;4980682;28;21048;-48
2024/02/05 02:19:19;;;;;;;2.40;1.60;;;9.40;99.90;;;;;;4985544;28;20508;-47
2024/02/05 02:22:04;;;;;;;4.30;2.00;;;9.40;99.90;;;;;;4984314;28;20508;-47
2024/02/05 02:24:35;;;;;;;3.50;1.90;;;9.40;99.90;;;;;;4984618;28;20498;-48
2024/02/05 02:27:04;;;;;;;2.40;1.30;;;9.40;99.90;;;;;;4980599;28;20559;-50
2024/02/05 02:29:32;;;;;;;4.27;1.77;;;9.40;99.90;;;;;;4986673;28;20656;-47
2024/02/05 02:32:11;;;;;;;2.40;1.30;;;9.40;99.90;;;;;;4980207;28;20454;-47
2024/02/05 02:34:45;;;;;;;3.63;1.60;;;9.40;99.90;;;;;;4984709;28;20946;-49
2024/02/05 02:37:15;;;;;;;2.13;1.70;;;9.40;99.90;;;;;;4985768;28;20456;-47
2024/02/05 02:39:55;;;;;;;3.73;1.43;;;9.40;99.90;;;;;;4968890;28;20421;-47
2024/02/05 02:42:25;;;;;;;6.03;2.00;;;9.40;99.90;;;;;;4982884;28;20568;-47
2024/02/05 02:44:55;;;;;;;4.80;2.00;;;9.40;99.90;;;;;;4983499;28;20504;-47
2024/02/05 02:47:23;;;;;;;5.43;1.60;;;9.40;99.90;;;;;;4984517;28;20477;-50
2024/02/05 02:49:51;;;;;;;6.40;1.83;;;9.40;99.90;;;;;;4985881;28;20444;-49
2024/02/05 02:52:20;;;;;;;4.20;1.50;;;9.40;99.90;;;;;;4983806;28;20472;-46
2024/02/05 02:54:49;;;;;;;4.47;1.80;;;9.40;99.90;;;;;;4978447;28;21460;-48
2024/02/05 02:57:17;;;;;;;4.20;1.60;;;9.40;99.90;;;;;;4985700;28;20461;-47
2024/02/05 02:59:46;;;;;;;2.83;1.50;;;9.40;99.90;;;;;;4984980;28;20552;-48
2024/02/05 03:02:14;;;;;;;4.00;2.20;;;9.40;99.90;;;;;;4982760;28;20831;-45
2024/02/05 03:04:42;;;;;;;6.13;2.10;;;9.40;99.90;;;;;;4987543;28;20443;-46
2024/02/05 03:07:11;;;;;;;5.40;2.17;;;9.40;99.90;;;;;;4991816;28;20461;-46
2024/02/05 03:09:39;;;;;;;3.73;1.70;;;9.40;99.90;;;;;;4981649;28;20427;-45
2024/02/05 03:12:09;;;;;;;4.13;2.17;;;9.40;99.90;;;;;;4985476;28;20539;-49
2024/02/05 03:14:37;;;;;;;3.50;1.50;;;9.40;99.90;;;;;;4978928;28;20865;-46
2024/02/05 03:17:06;;;;;;;3.53;2.50;;;9.40;99.90;;;;;;4986593;28;20458;-46
2024/02/05 03:19:34;;;;;;;3.20;2.20;;;9.40;99.90;;;;;;4991796;28;20434;-45
2024/02/05 03:22:03;;;;;;;5.23;1.47;;;9.40;99.90;;;;;;4991247;28;20476;-44
2024/02/05 03:24:32;;;;;;;3.57;1.90;;;9.40;99.90;;;;;;4981738;28;20555;-46
2024/02/05 03:27:00;;;;;;;5.20;1.80;;;9.40;99.90;;;;;;4990433;28;20863;-45
2024/02/05 03:29:29;;;;;;;6.03;3.10;;;9.40;99.90;;;;;;4990706;28;20477;-45
2024/02/05 03:31:57;;;;;;;2.93;2.03;;;9.40;99.90;;;;;;4979407;28;20506;-45
2024/02/05 03:34:25;;;;;;;3.90;1.87;;;9.40;99.90;;;;;;4990700;28;20451;-45
2024/02/05 03:36:54;;;;;;;2.90;1.77;;;9.40;99.90;;;;;;4987943;28;20443;-45
2024/02/05 03:39:22;;;;;;;3.93;2.03;;;9.40;99.90;;;;;;4974155;28;20944;-45
2024/02/05 03:41:50;;;;;;;3.30;2.03;;;9.40;99.90;;;;;;4989789;28;20442;-45
2024/02/05 03:44:18;;;;;;;3.93;2.10;;;9.40;99.90;;;;;;4987886;28;20469;-46
2024/02/05 03:46:48;;;;;;;3.43;2.23;;;9.40;99.90;;;;;;4985120;28;20455;-45
2024/02/05 03:49:16;;;;;;;2.80;1.80;;;9.40;99.90;;;;;;4991320;28;20485;-45
2024/02/05 03:51:45;;;;;;;4.63;1.50;;;9.40;99.90;;;;;;4990296;28;20464;-45
2024/02/05 03:54:13;;;;;;;3.33;2.23;;;9.40;99.90;;;;;;4986664;28;20965;-45
2024/02/05 03:56:42;;;;;;;8.20;2.00;;;9.40;99.90;;;;;;4989375;28;20509;-45
2024/02/05 03:59:13;;;;;;;3.53;1.90;;;9.40;99.90;;;;;;4990840;28;20545;-44
2024/02/05 04:01:42;;;;;;;5.17;1.70;;;9.40;99.90;;;;;;4985578;28;20535;-45
2024/02/05 04:04:12;;;;;;;5.10;2.30;;;9.40;99.90;;;;;;4983042;28;20485;-45
2024/02/05 04:06:40;;;;;;;3.60;1.90;;;9.40;99.90;;;;;;4984633;28;20461;-45
2024/02/05 04:09:09;;;;;;;3.97;1.63;;;9.40;99.90;;;;;;4985905;28;20568;-45
2024/02/05 04:11:39;;;;;;;4.00;1.90;;;9.40;99.90;;;;;;4983262;28;20461;-45
2024/02/05 04:14:09;;;;;;;5.70;1.93;;;9.40;99.90;;;;;;4977361;28;20489;-45
2024/02/05 04:16:38;;;;;;;4.03;1.83;;;9.40;99.90;;;;;;4978799;28;20528;-45
2024/02/05 04:19:06;;;;;;;5.67;2.30;;;9.40;99.90;;;;;;4985456;28;20487;-45
2024/02/05 04:21:36;;;;;;;6.83;2.20;;;9.40;99.90;;;;;;4978813;28;20431;-46
2024/02/05 04:24:06;;;;;;;5.53;1.90;;;9.40;99.90;;;;;;4981417;28;20485;-45
2024/02/05 04:26:34;;;;;;;4.10;2.47;;;9.40;99.90;;;;;;4983055;28;20949;-46
2024/02/05 04:29:04;;;;;;;4.30;2.07;;;9.40;99.90;;;;;;4983737;28;20498;-46
2024/02/05 04:31:32;;;;;;;8.00;2.00;;;9.40;99.90;;;;;;4979337;28;20443;-45
2024/02/05 04:34:00;;;;;;;3.83;2.03;;;9.40;99.90;;;;;;4981552;28;20502;-46
2024/02/05 04:36:28;;;;;;;3.50;1.60;;;9.40;99.90;;;;;;4980718;28;20492;-44
2024/02/05 04:38:58;;;;;;;4.90;1.80;;;9.40;99.90;;;;;;4977596;28;20449;-45
2024/02/05 04:41:26;;;;;;;4.33;2.30;;;9.40;99.90;;;;;;4979166;28;20852;-45
2024/02/05 04:43:54;;;;;;;2.83;2.00;;;9.40;99.90;;;;;;4980048;28;20524;-45
2024/02/05 04:46:22;;;;;;;4.07;2.00;;;9.40;99.90;;;;;;4974657;28;20514;-45
2024/02/05 04:48:50;;;;;;;6.10;2.20;;;9.40;99.90;;;;;;4982895;28;20540;-45
2024/02/05 04:51:19;;;;;;;4.87;2.33;;;9.40;99.90;;;;;;4984526;28;20505;-45
2024/02/05 04:53:47;;;;;;;9.20;2.33;;;9.40;99.90;;;;;;4981097;28;20848;-45
2024/02/05 04:56:16;;;;;;;7.07;1.90;;;9.40;99.90;;;;;;4977681;28;20453;-45
2024/02/05 04:58:44;;;;;;;5.80;2.10;;;9.40;99.90;;;;;;4982853;28;20494;-46
2024/02/05 05:01:13;;;;;;;6.70;2.57;;;9.40;99.90;;;;;;4980271;28;20464;-45
2024/02/05 05:03:41;;;;;;;3.47;2.10;;;9.40;99.90;;;;;;4981160;28;20474;-46
2024/02/05 05:06:09;;;;;;;7.43;2.63;;;9.40;99.90;;;;;;4976837;28;20439;-47
2024/02/05 05:08:37;;;;;;;4.67;2.20;;;9.40;99.90;;;;;;4983343;28;20466;-46
2024/02/05 05:11:05;;;;;;;4.30;1.73;;;9.40;99.90;;;;;;4979983;28;20535;-47
2024/02/05 05:13:35;;;;;;;6.23;1.87;;;9.40;99.90;;;;;;4981070;28;20819;-43
2024/02/05 05:16:03;;;;;;;6.10;2.40;;;9.40;99.90;;;;;;4962549;28;20841;-45
2024/02/05 05:18:32;;;;;;;5.30;2.10;;;9.40;99.90;;;;;;4980589;28;20864;-46
2024/02/05 05:21:00;;;;;;;7.93;2.70;;;9.40;99.90;;;;;;4983813;28;20812;-46
2024/02/05 05:23:28;;;;;;;5.20;2.23;;;9.40;99.90;;;;;;4979561;28;20494;-45
2024/02/05 05:25:56;;;;;;;3.87;2.10;;;9.40;99.90;;;;;;4978677;28;20434;-45
2024/02/05 05:28:24;;;;;;;2.63;1.77;;;9.40;99.90;;;;;;4982669;28;20886;-44
2024/02/05 05:30:54;;;;;;;3.53;1.57;;;9.40;99.90;;;;;;4976543;28;20564;-45
2024/02/05 05:33:22;;;;;;;6.93;1.93;;;9.40;99.90;;;;;;4977288;28;20488;-46
2024/02/05 05:35:50;;;;;;;5.50;2.73;;;9.40;99.90;;;;;;4978154;28;20528;-45
2024/02/05 05:38:18;;;;;;;5.27;2.43;;;9.40;99.90;;;;;;4982891;28;20522;-46
2024/02/05 05:40:47;;;;;;;6.93;2.80;;;9.40;99.90;;;;;;4965029;28;20455;-45
2024/02/05 05:43:15;;;;;;;5.73;2.53;;;9.40;99.90;;;;;;4977110;28;21000;-45
2024/02/05 05:45:44;;;;;;;5.00;2.23;;;9.40;99.90;;;;;;4981662;28;20785;-45
2024/02/05 05:48:14;;;;;;;6.07;2.50;;;9.40;99.90;;;;;;4978015;28;20500;-45
2024/02/05 05:50:42;;;;;;;3.77;1.60;;;9.40;99.90;;;;;;4965296;28;20516;-46
2024/02/05 05:53:10;;;;;;;7.53;2.30;;;9.40;99.90;;;;;;4982297;28;20553;-45
2024/02/05 05:55:38;;;;;;;9.33;2.07;;;9.40;99.90;;;;;;4973224;28;20944;-45
2024/02/05 05:58:06;;;;;;;6.43;2.40;;;9.40;99.90;;;;;;4983994;28;20828;-45
2024/02/05 06:00:34;;;;;;;7.93;2.27;;;9.40;99.90;;;;;;4983540;28;20933;-45
2024/02/05 06:03:05;;;;;;;4.17;1.80;;;9.40;99.90;;;;;;4975336;28;21409;-45
2024/02/05 06:05:35;;;;;;;6.47;2.40;;;9.40;99.90;;;;;;4981716;28;20787;-45
2024/02/05 06:08:04;;;;;;;4.30;2.20;;;9.40;99.90;;;;;;4981909;28;20524;-44
2024/02/05 06:10:33;;;;;;;6.23;2.40;;;9.40;99.90;;;;;;4982603;28;20449;-45
2024/02/05 06:13:03;;;;;;;5.67;2.47;;;9.40;99.90;;;;;;4974966;28;20573;-44
2024/02/05 06:15:31;;;;;;;5.33;2.00;;;9.40;99.90;;;;;;4981148;28;20496;-47
2024/02/05 06:17:59;;;;;;;7.93;2.30;;;9.40;99.90;;;;;;4976948;28;20475;-46
2024/02/05 06:20:28;;;;;;;5.10;2.43;;;9.40;99.90;;;;;;4983032;28;20432;-45
2024/02/05 06:22:57;;;;;;;3.80;2.03;;;9.40;99.90;;;;;;4974733;28;20475;-45
2024/02/05 06:25:26;;;;;;;7.80;3.33;;;9.40;99.90;;;;;;4980864;28;20961;-45
2024/02/05 06:27:54;;;;;;;4.57;2.50;;;9.40;99.90;;;;;;4981245;28;20490;-46
2024/02/05 06:30:23;;;;;;;3.83;2.20;;;9.40;99.90;;;;;;4982502;28;20543;-45
2024/02/05 06:32:52;;;;;;;6.83;2.43;;;9.40;99.90;;;;;;4976048;28;20501;-46
2024/02/05 06:35:20;;;;;;;4.50;2.70;;;9.40;99.90;;;;;;4975456;28;20462;-45
2024/02/05 06:37:48;;;;;;;3.63;2.17;;;9.40;99.90;;;;;;4980098;28;20494;-46
2024/02/05 06:40:18;;;;;;;5.20;2.27;;;9.40;99.90;;;;;;4981003;28;20521;-43
2024/02/05 06:42:46;;;;;;;5.33;3.23;;;9.40;99.90;;;;;;4975395;28;20481;-45
2024/02/05 06:45:15;;;;;;;3.30;2.03;;;9.40;99.90;;;;;;4972401;28;20462;-46
2024/02/05 06:47:44;;;;;;;5.40;2.47;;;9.40;99.90;;;;;;4974799;28;21004;-46
2024/02/05 06:50:12;;;;;;;5.03;2.67;;;9.40;99.90;;;;;;4984365;28;20476;-45
2024/02/05 06:52:40;;;;;;;7.20;2.43;;;9.40;99.90;;;;;;4984450;28;20516;-46
2024/02/05 06:55:09;;;;;;;6.50;2.13;;;9.40;99.90;;;;;;4982818;28;20456;-46
2024/02/05 06:57:39;;;;;;;5.00;2.13;;;9.40;99.90;;;;;;4981782;28;20463;-46
2024/02/05 07:00:10;;;;;;;4.03;2.17;;;9.40;99.90;;;;;;4985606;28;20922;-45
2024/02/05 07:02:38;;;;;;;3.30;2.27;;;9.40;99.90;;;;;;4980079;28;20476;-45
2024/02/05 07:05:06;;;;;;;5.80;1.97;;;9.40;99.90;;;;;;4984371;28;20796;-45
2024/02/05 07:07:35;;;;;;;3.07;2.60;;;9.40;99.90;;;;;;4979522;28;20497;-44
2024/02/05 07:10:05;;;;;;;7.17;1.90;;;9.40;99.90;;;;;;4985405;28;20469;-46
2024/02/05 07:12:33;;;;;;;5.30;2.20;;;9.40;99.90;;;;;;4984036;28;21001;-45
2024/02/05 07:15:09;;;;;;;5.00;2.40;;;9.40;99.90;;;;;;4984186;28;21045;-45
2024/02/05 07:17:37;;;;;;;4.20;2.00;;;9.40;99.90;;;;;;4976026;28;20556;-45
2024/02/05 07:20:07;;;;;;;4.87;2.53;;;9.40;99.90;;;;;;4985148;28;20458;-45
2024/02/05 07:22:35;;;;;;;3.90;2.27;;;9.40;99.90;;;;;;4984249;28;20482;-46
2024/02/05 07:25:05;;;;;;;4.10;2.10;;;9.40;99.90;;;;;;4980038;28;20426;-45
2024/02/05 07:27:35;;;;;;;4.47;1.80;;;9.40;99.90;;;;;;4982094;28;20461;-47
2024/02/05 07:30:05;;;;;;;4.67;2.00;;;9.40;99.90;;;;;;4985646;28;20468;-48
2024/02/05 07:32:34;;;;;;;5.10;1.97;;;9.40;99.90;;;;;;4978558;28;20991;-45
2024/02/05 07:35:03;;;;;;;4.27;2.30;;;9.40;99.90;;;;;;4983860;28;20438;-46
2024/02/05 07:37:33;;;;;;;4.83;2.23;;;9.40;99.90;;;;;;4983125;28;20457;-49
2024/02/05 07:40:04;;;;;;;6.37;2.80;;;9.40;99.90;;;;;;4974757;28;20439;-50
2024/02/05 07:42:33;;;;;;;4.07;2.13;;;9.40;99.90;;;;;;4980665;28;20674;-46
2024/02/05 07:45:01;;;;;;;4.77;2.10;;;9.40;99.90;;;;;;4984109;28;20517;-46
2024/02/05 07:47:29;;;;;;;4.60;2.40;;;9.40;99.90;;;;;;4975680;28;20470;-46
2024/02/05 07:49:59;;;;;;;4.90;1.90;;;9.40;99.90;;;;;;4967481;28;20438;-49
2024/02/05 07:52:29;;;;;;;8.13;1.63;;;9.40;99.90;;;;;;4983579;28;20473;-51
2024/02/05 07:54:57;;;;;;;8.47;2.77;;;9.40;99.90;;;;;;4975985;28;20437;-45
2024/02/05 07:57:26;;;;;;;3.90;2.10;;;9.40;99.90;;;;;;4981911;28;20454;-47
2024/02/05 07:59:55;;;;;;;11.13;2.33;;;9.40;99.90;;;;;;4984708;28;20542;-46
2024/02/05 08:02:25;;;;;;;5.03;2.17;;;9.40;99.90;;;;;;4964558;28;20493;-45
2024/02/05 08:04:54;;;;;;;4.50;2.23;;;9.40;99.90;;;;;;4965832;28;20497;-48
2024/02/05 08:07:25;;;;;;;6.67;2.83;;;9.40;99.90;;;;;;4984064;28;20470;-46
2024/02/05 08:09:54;;;;;;;5.03;2.60;;;9.40;99.90;;;;;;4975385;28;20449;-47
2024/02/05 08:12:22;;;;;;;4.70;2.47;;;9.40;99.90;;;;;;4983424;28;20457;-46
2024/02/05 08:14:50;;;;;;;4.77;1.90;;;9.40;99.90;;;;;;4983193;28;21336;-47
2024/02/05 08:17:19;;;;;;;7.17;2.70;;;9.40;99.90;;;;;;4978165;28;20454;-48
2024/02/05 08:19:48;;;;;;;5.47;1.93;;;9.40;99.90;;;;;;4983976;28;20442;-46
2024/02/05 08:22:17;;;;;;;7.50;2.60;;;9.40;99.90;;;;;;4980441;28;20477;-45
2024/02/05 08:24:46;;;;;;;6.00;2.27;;;9.40;99.90;;;;;;4980149;28;20450;-46
2024/02/05 08:27:15;;;;;;;5.87;2.00;;;9.40;99.90;;;;;;4983383;28;20462;-47
2024/02/05 08:29:43;;;;;;;3.90;2.07;;;9.40;99.90;;;;;;4975425;28;20481;-46
2024/02/05 08:32:11;;;;;;;2.87;1.63;;;9.40;99.90;;;;;;4977072;28;20466;-47
2024/02/05 08:34:40;;;;;;;4.97;1.93;;;9.40;99.90;;;;;;4983660;28;21011;-47
2024/02/05 08:37:09;;;;;;;6.27;2.47;;;9.40;99.90;;;;;;4980300;28;20461;-48
2024/02/05 08:39:39;;;;;;;4.80;2.80;;;9.40;99.90;;;;;;4974637;28;20430;-44
2024/02/05 08:42:09;;;;;;;3.43;1.90;;;9.40;99.90;;;;;;4982834;28;20426;-45
2024/02/05 08:44:56;;;;;;;2.77;2.17;;;9.40;99.90;;;;;;4975442;28;20524;-46
2024/02/05 08:47:27;;;;;;;8.60;3.80;;;9.40;99.90;;;;;;4975257;28;20465;-46
2024/02/05 08:49:55;;;;;;;4.47;2.67;;;9.40;99.90;;;;;;4975000;28;20445;-46
2024/02/05 08:52:24;;;;;;;7.40;3.23;;;9.40;99.90;;;;;;4983060;28;20466;-46
2024/02/05 08:54:53;;;;;;;6.00;3.20;;;9.40;99.90;;;;;;4981730;28;20871;-47
2024/02/05 08:57:24;;;;;;;4.90;2.33;;;9.40;99.90;;;;;;4974418;28;20478;-45
2024/02/05 08:59:52;;;;;;;4.73;2.50;;;9.40;99.90;;;;;;4982408;28;20442;-47
2024/02/05 09:02:22;;;;;;;6.07;2.33;;;9.40;99.90;;;;;;4976483;28;20469;-48
2024/02/05 09:04:51;;;;;;;3.43;2.30;;;9.50;99.90;;;;;;4973948;28;20442;-48
2024/02/05 09:07:21;;;;;;;3.20;1.97;;;9.50;99.90;;;;;;4982582;28;20450;-48
2024/02/05 09:09:50;;;;;;;4.00;2.47;;;9.50;99.90;;;;;;4979677;28;21680;-48
2024/02/05 09:12:19;;;;;;;4.17;2.73;;;9.50;99.90;;;;;;4979962;28;20465;-46
2024/02/05 09:14:50;;;;;;;3.60;2.10;;;9.50;99.90;;;;;;4973064;28;20529;-45
2024/02/05 09:17:19;;;;;;;5.10;2.30;;;9.50;99.90;;;;;;4976772;28;20489;-47
2024/02/05 09:19:48;;;;;;;3.20;2.40;;;9.50;99.90;;;;;;4982710;28;20480;-47
2024/02/05 09:22:17;;;;;;;5.50;1.80;;;9.50;99.90;;;;;;4964856;28;20883;-45
2024/02/05 09:24:45;;;;;;;5.57;2.10;;;9.50;99.90;;;;;;4977558;28;20457;-44
2024/02/05 09:27:14;;;;;;;3.10;2.27;;;9.50;99.90;;;;;;4977496;28;20457;-46
2024/02/05 09:29:42;;;;;;;5.73;2.47;;;9.50;99.90;;;;;;4983500;28;20449;-47
2024/02/05 09:32:13;;;;;;;4.70;1.87;;;9.50;99.90;;;;;;4972033;28;20462;-45
2024/02/05 09:34:43;;;;;;;7.80;2.63;;;9.60;99.90;;;;;;4982149;28;20433;-50
2024/02/05 09:37:13;;;;;;;3.90;2.03;;;9.60;99.90;;;;;;4979936;28;20470;-46
2024/02/05 09:39:41;;;;;;;4.03;2.47;;;9.60;99.90;;;;;;4980338;28;21017;-47
2024/02/05 09:42:12;;;;;;;6.37;2.10;;;9.60;99.90;;;;;;4969830;28;20417;-50
2024/02/05 09:44:42;;;;;;;5.93;2.50;;;9.60;99.90;;;;;;4978879;28;20863;-45
2024/02/05 09:47:18;;;;;;;5.70;2.27;;;9.60;99.90;;;;;;4976717;28;20454;-47
2024/02/05 09:49:47;;;;;;;3.60;2.50;;;9.50;99.90;;;;;;4975291;28;20456;-47
2024/02/05 09:52:16;;;;;;;6.43;3.03;;;9.60;99.90;;;;;;4970603;28;20806;-47
2024/02/05 09:54:47;;;;;;;4.63;2.40;;;9.60;99.90;;;;;;4980094;28;20458;-45
2024/02/05 09:57:17;;;;;;;7.03;2.40;;;9.60;99.90;;;;;;4977645;28;20477;-46
2024/02/05 09:59:54;;;;;;;6.10;2.20;;;9.60;99.90;;;;;;4978021;28;20453;-47
2024/02/05 10:02:26;;;;;;;3.87;2.00;;;9.60;99.90;;;;;;4970374;28;20485;-46
2024/02/05 10:05:00;;;;;;;5.57;2.20;;;9.60;99.90;;;;;;4975282;28;20433;-48
2024/02/05 10:07:33;;;;;;;7.35;2.65;;;9.60;99.90;;;;;;4977301;28;20445;-46
2024/02/05 10:10:04;;;;;;;6.90;3.77;;;9.70;99.90;;;;;;4974262;28;20207;-46
2024/02/05 10:12:37;;;;;;;7.00;2.10;;;9.70;99.90;;;;;;4981357;28;20472;-47
2024/02/05 10:15:07;;;;;;;6.03;2.53;;;9.70;99.90;;;;;;4976181;28;20470;-44
2024/02/05 10:17:37;;;;;;;7.13;2.33;;;9.70;99.90;;;;;;4970264;28;20551;-44
2024/02/05 10:20:10;;;;;;;5.50;2.97;;;9.70;99.90;;;;;;4978096;28;20433;-45
2024/02/05 10:22:45;;;;;;;9.40;3.23;;;9.70;99.90;;;;;;4968109;28;20473;-45
2024/02/05 10:25:14;;;;;;;4.90;3.00;;;9.70;99.90;;;;;;4981111;28;20446;-44
2024/02/05 10:27:43;;;;;;;4.10;2.27;;;9.70;99.90;;;;;;4985837;28;20511;-46
2024/02/05 10:30:12;;;;;;;7.93;2.30;;;9.60;99.90;;;;;;4985720;28;20431;-45
2024/02/05 10:32:41;;;;;;;5.80;2.20;;;9.60;99.90;;;;;;4974677;28;20492;-44
2024/02/05 10:35:16;;;;;;;5.90;2.67;;;9.70;99.90;;;;;;4984553;28;20458;-45
2024/02/05 10:37:45;;;;;;;5.70;2.63;;;9.60;99.90;;;;;;4984087;28;20896;-45
2024/02/05 10:40:13;;;;;;;5.80;2.57;;;9.60;99.90;;;;;;4982058;28;20509;-45
2024/02/05 10:42:42;;;;;;;9.53;3.87;;;9.60;99.90;;;;;;4981175;28;20480;-46
2024/02/05 10:45:12;;;;;;;8.87;2.40;;;9.60;99.90;;;;;;4982639;28;20437;-44
2024/02/05 10:47:44;;;;;;;9.03;3.03;;;9.70;99.90;;;;;;4978444;28;20931;-44
2024/02/05 10:50:13;;;;;;;4.60;2.60;;;9.70;99.90;;;;;;4983729;28;20436;-46
2024/02/05 10:52:45;;;;;;;5.40;2.20;;;9.70;99.90;;;;;;4975278;28;21098;-44
2024/02/05 10:55:16;;;;;;;6.97;2.60;;;9.70;99.90;;;;;;4979014;28;20838;-44
2024/02/05 10:57:47;;;;;;;5.80;2.67;;;9.70;99.90;;;;;;4981587;28;20867;-43
2024/02/05 11:00:18;;;;;;;5.40;2.40;;;9.70;99.90;;;;;;4975644;28;20453;-44
2024/02/05 11:02:51;;;;;;;3.27;2.00;;;9.60;99.90;;;;;;4977913;28;20554;-45
2024/02/05 11:05:21;;;;;;;7.23;2.60;;;9.70;99.90;;;;;;4975697;28;20438;-44
2024/02/05 11:07:53;;;;;;;3.87;2.00;;;9.70;99.90;;;;;;4979427;28;20466;-44
2024/02/05 11:10:22;;;;;;;4.53;2.37;;;9.70;99.90;;;;;;4979963;28;20813;-45
2024/02/05 11:12:58;;;;;;;7.47;3.67;;;9.70;99.90;;;;;;4970535;28;20488;-45
2024/02/05 11:15:30;;;;;;;2.63;1.80;;;9.70;99.90;;;;;;4975353;28;20435;-45
2024/02/05 11:18:01;;;;;;;6.87;3.00;;;9.70;99.90;;;;;;4973750;28;20471;-45
2024/02/05 11:20:32;;;;;;;4.57;2.57;;;9.70;99.90;;;;;;4976250;28;20530;-44
2024/02/05 11:23:04;;;;;;;5.90;2.10;;;9.70;99.90;;;;;;4977114;28;20462;-46
2024/02/05 11:25:37;;;;;;;6.05;3.33;;;9.70;99.90;;;;;;4961750;28;20461;-44
2024/02/05 11:28:10;;;;;;;9.50;3.60;;;9.80;99.90;;;;;;4973231;28;20220;-44
2024/02/05 11:30:42;;;;;;;7.33;2.73;;;9.80;99.90;;;;;;4975257;28;20497;-44
2024/02/05 11:33:13;;;;;;;5.27;3.43;;;9.80;99.90;;;;;;4973507;28;20465;-45
2024/02/05 11:35:49;;;;;;;11.17;2.80;;;9.80;99.90;;;;;;4981065;28;20520;-44
2024/02/05 11:38:20;;;;;;;7.47;2.60;;;9.80;99.90;;;;;;4961689;28;20539;-44
2024/02/05 11:40:50;;;;;;;8.37;3.43;;;9.80;99.90;;;;;;4981786;28;20457;-44
2024/02/05 11:43:23;;;;;;;10.43;5.10;;;9.70;99.90;;;;;;4973150;28;20565;-45
2024/02/05 11:45:57;;;;;;;8.13;3.70;;;9.70;99.90;;;;;;4980232;28;20449;-46
2024/02/05 11:48:28;;;;;;;8.83;2.73;;;9.70;99.90;;;;;;4974204;28;20506;-45
2024/02/05 11:51:00;;;;;;;6.17;2.80;;;9.70;99.90;;;;;;4973809;28;20530;-45
2024/02/05 11:53:29;;;;;;;4.60;2.13;;;9.70;99.90;;;;;;4981453;28;20565;-45
2024/02/05 11:55:57;;;;;;;6.03;2.90;;;9.70;99.90;;;;;;4973409;28;20443;-45
2024/02/05 11:58:26;;;;;;;8.63;2.57;;;9.70;99.90;;;;;;4974093;28;20558;-44
2024/02/05 12:00:55;;;;;;;5.60;2.80;;;9.70;99.90;;;;;;4980317;28;20434;-47
2024/02/05 12:03:24;;;;;;;7.20;2.93;;;9.70;99.90;;;;;;4977034;28;21070;-45
2024/02/05 12:05:54;;;;;;;6.37;2.80;;;9.70;99.90;;;;;;4980855;28;20453;-46
2024/02/05 12:08:24;;;;;;;7.27;2.50;;;9.70;99.90;;;;;;4973010;28;20461;-46
2024/02/05 12:10:52;;;;;;;4.50;2.37;;;9.70;99.90;;;;;;4983815;28;21018;-45
2024/02/05 12:13:20;;;;;;;6.20;2.80;;;9.70;99.90;;;;;;4978709;28;20482;-43
2024/02/05 12:15:49;;;;;;;5.03;2.20;;;9.70;99.90;;;;;;4977757;28;20467;-44
2024/02/05 12:18:17;;;;;;;4.10;2.77;;;9.70;99.90;;;;;;4982867;28;20536;-45
2024/02/05 12:20:47;;;;;;;6.20;2.83;;;9.70;99.90;;;;;;4980513;28;20780;-45
2024/02/05 12:23:18;;;;;;;6.13;3.13;;;9.70;99.90;;;;;;4984290;28;20457;-45
2024/02/05 12:25:47;;;;;;;6.00;2.50;;;9.70;99.90;;;;;;4982415;28;20443;-44
2024/02/05 12:28:15;;;;;;;5.63;2.33;;;9.70;99.90;;;;;;4982929;28;21171;-46
2024/02/05 12:30:44;;;;;;;10.03;3.17;;;9.70;99.90;;;;;;4982606;28;20788;-45
2024/02/05 12:33:15;;;;;;;6.70;2.90;;;9.70;99.90;;;;;;4952635;28;20673;-46
2024/02/05 12:35:46;;;;;;;5.67;2.20;;;9.70;99.90;;;;;;4977108;28;20836;-46
2024/02/05 12:38:14;;;;;;;4.23;2.80;;;9.70;99.90;;;;;;4973995;28;20471;-43
2024/02/05 12:40:45;;;;;;;5.00;2.73;;;9.70;99.90;;;;;;4980083;28;20544;-46
2024/02/05 12:43:14;;;;;;;6.00;2.40;;;9.70;99.90;;;;;;4963065;28;21014;-45
2024/02/05 12:45:43;;;;;;;6.13;2.27;;;9.80;99.90;;;;;;4980553;28;20465;-45
2024/02/05 12:48:12;;;;;;;4.93;2.20;;;9.70;99.90;;;;;;4974744;28;20570;-46
2024/02/05 12:50:40;;;;;;;3.23;2.30;;;9.70;99.90;;;;;;4981921;28;20522;-46
2024/02/05 12:53:09;;;;;;;6.30;2.10;;;9.70;99.90;;;;;;4973860;28;20865;-48
2024/02/05 12:55:42;;;;;;;3.27;2.13;;;9.80;99.90;;;;;;4973815;28;20452;-47
2024/02/05 12:58:15;;;;;;;5.50;2.80;;;9.80;99.90;;;;;;4970818;28;21083;-50
2024/02/05 13:00:46;;;;;;;8.93;2.60;;;9.80;99.90;;;;;;4975249;28;20439;-49
2024/02/05 13:03:14;;;;;;;7.03;3.00;;;9.80;99.90;;;;;;4981395;28;20565;-45
2024/02/05 13:05:43;;;;;;;6.00;3.10;;;9.80;99.90;;;;;;4981464;28;20521;-47
2024/02/05 13:08:13;;;;;;;4.97;2.63;;;9.80;99.90;;;;;;4968835;28;20975;-47